createdAt,value
2022-07-27T00:01:08.936Z,38.30
2022-07-27T00:03:37.124Z,38.34
2022-07-27T00:06:05.248Z,38.54
2022-07-27T00:08:33.222Z,38.43
2022-07-27T00:11:01.192Z,38.32
2022-07-27T00:13:30.751Z,38.60
2022-07-27T00:15:58.844Z,38.22
2022-07-27T00:18:26.921Z,38.30
2022-07-27T00:20:54.880Z,38.66
2022-07-27T00:23:22.895Z,38.23
2022-07-27T00:25:50.889Z,38.18
2022-07-27T00:28:18.905Z,38.20
2022-07-27T00:30:48.325Z,37.86
2022-07-27T00:33:16.988Z,38.00
2022-07-27T00:35:45.756Z,37.94
2022-07-27T00:38:13.800Z,38.21
2022-07-27T00:40:41.795Z,38.36
2022-07-27T00:43:09.821Z,38.05
2022-07-27T00:45:37.913Z,38.30
2022-07-27T00:48:07.631Z,38.19
2022-07-27T00:50:36.079Z,38.24
2022-07-27T00:53:06.094Z,38.16
2022-07-27T00:55:34.177Z,38.24
2022-07-27T00:58:02.261Z,38.24
2022-07-27T01:00:30.213Z,38.20
2022-07-27T01:02:58.331Z,38.34
2022-07-27T01:05:36.351Z,38.31
2022-07-27T01:08:06.873Z,38.84
2022-07-27T01:10:35.278Z,38.69
2022-07-27T01:13:03.531Z,39.00
2022-07-27T01:15:31.670Z,38.83
2022-07-27T01:18:05.209Z,39.20
2022-07-27T01:20:34.783Z,39.06
2022-07-27T01:23:04.123Z,39.34
2022-07-27T01:25:32.212Z,39.21
2022-07-27T01:28:00.206Z,39.31
2022-07-27T01:30:30.200Z,39.15
2022-07-27T01:33:02.084Z,39.16
2022-07-27T01:35:30.529Z,39.13
2022-07-27T01:37:58.535Z,39.45
2022-07-27T01:40:27.974Z,39.41
2022-07-27T01:42:55.941Z,39.35
2022-07-27T01:45:24.107Z,39.36
2022-07-27T01:47:52.307Z,39.60
2022-07-27T01:50:20.389Z,38.99
2022-07-27T01:52:48.706Z,39.05
2022-07-27T01:55:19.108Z,39.13
2022-07-27T01:57:48.544Z,38.91
2022-07-27T02:00:16.831Z,38.91
2022-07-27T02:02:44.837Z,39.15
2022-07-27T02:05:12.935Z,39.26
2022-07-27T02:07:41.038Z,39.12
2022-07-27T02:10:09.458Z,39.21
2022-07-27T02:12:36.462Z,39.13
2022-07-27T02:15:07.867Z,39.28
2022-07-27T02:17:36.151Z,39.32
2022-07-27T02:20:04.224Z,39.44
2022-07-27T02:22:32.454Z,39.17
2022-07-27T02:25:00.454Z,39.22
2022-07-27T02:27:28.565Z,39.34
2022-07-27T02:29:58.024Z,39.68
2022-07-27T02:32:27.472Z,39.52
2022-07-27T02:34:55.453Z,39.66
2022-07-27T02:37:23.483Z,39.50
2022-07-27T02:39:51.526Z,39.61
2022-07-27T02:42:19.490Z,39.95
2022-07-27T02:44:47.490Z,39.63
2022-07-27T02:47:15.738Z,39.90
2022-07-27T02:49:45.109Z,40.05
2022-07-27T02:52:13.110Z,40.12
2022-07-27T02:54:41.792Z,39.95
2022-07-27T02:57:09.748Z,40.23
2022-07-27T02:59:37.689Z,39.88
2022-07-27T03:02:05.649Z,39.82
2022-07-27T03:04:33.683Z,39.97
2022-07-27T03:07:03.079Z,40.16
2022-07-27T03:09:33.332Z,40.17
2022-07-27T03:12:01.672Z,40.24
2022-07-27T03:14:29.649Z,39.73
2022-07-27T03:16:57.638Z,39.77
2022-07-27T03:19:30.020Z,39.92
2022-07-27T03:21:58.387Z,39.80
2022-07-27T03:24:27.759Z,39.80
2022-07-27T03:26:55.729Z,39.69
2022-07-27T03:29:23.719Z,39.91
2022-07-27T03:31:56.101Z,39.83
2022-07-27T03:34:24.051Z,40.17
2022-07-27T03:36:51.940Z,40.08
2022-07-27T03:39:19.888Z,40.00
2022-07-27T03:41:49.231Z,39.93
2022-07-27T03:44:17.252Z,39.91
2022-07-27T03:46:45.237Z,40.10
2022-07-27T03:49:14.303Z,40.05
2022-07-27T03:51:43.033Z,40.22
2022-07-27T03:54:10.946Z,40.08
2022-07-27T03:56:38.940Z,40.04
2022-07-27T03:59:08.432Z,40.18
2022-07-27T04:01:36.839Z,40.07
2022-07-27T04:04:05.003Z,40.20
2022-07-27T04:06:33.019Z,40.26
2022-07-27T04:09:08.583Z,40.25
2022-07-27T04:11:43.355Z,40.31
2022-07-27T04:14:13.720Z,40.34
2022-07-27T04:16:41.729Z,40.63
2022-07-27T04:19:09.989Z,40.34
2022-07-27T04:21:38.251Z,40.61
2022-07-27T04:24:07.119Z,40.72
2022-07-27T04:26:35.114Z,40.84
2022-07-27T04:29:03.032Z,40.57
2022-07-27T04:31:32.595Z,40.58
2022-07-27T04:34:00.797Z,40.32
2022-07-27T04:36:28.829Z,40.30
2022-07-27T04:38:56.789Z,40.12
2022-07-27T04:41:30.258Z,40.20
2022-07-27T04:43:58.616Z,40.52
2022-07-27T04:46:27.467Z,40.10
2022-07-27T04:48:57.047Z,40.36
2022-07-27T04:51:25.058Z,40.42
2022-07-27T04:53:57.645Z,40.35
2022-07-27T04:56:26.615Z,40.40
2022-07-27T04:58:54.680Z,40.31
2022-07-27T05:01:23.870Z,40.32
2022-07-27T05:03:51.941Z,40.55
2022-07-27T05:06:21.495Z,40.38
2022-07-27T05:08:49.442Z,40.19
2022-07-27T05:11:17.669Z,40.35
2022-07-27T05:13:45.758Z,40.69
2022-07-27T05:16:13.794Z,40.64
2022-07-27T05:18:41.815Z,40.40
2022-07-27T05:21:10.004Z,40.58
2022-07-27T05:23:39.368Z,40.77
2022-07-27T05:26:07.319Z,40.44
2022-07-27T05:28:35.307Z,40.97
2022-07-27T05:31:03.379Z,40.68
2022-07-27T05:33:31.325Z,40.99
2022-07-27T05:35:59.382Z,40.57
2022-07-27T05:38:27.357Z,40.83
2022-07-27T05:40:56.705Z,40.81
2022-07-27T05:43:24.653Z,41.03
2022-07-27T05:45:52.709Z,40.96
2022-07-27T05:48:20.718Z,40.63
2022-07-27T05:50:48.673Z,40.74
2022-07-27T05:53:16.606Z,40.48
2022-07-27T05:55:58.134Z,40.78
2022-07-27T05:58:29.555Z,40.47
2022-07-27T06:00:57.813Z,40.56
2022-07-27T06:03:25.994Z,40.44
2022-07-27T06:06:14.046Z,40.73
2022-07-27T06:08:41.007Z,40.59
2022-07-27T06:11:08.924Z,40.61
2022-07-27T06:13:42.276Z,40.71
2022-07-27T06:16:10.791Z,40.50
2022-07-27T06:18:38.852Z,40.41
2022-07-27T06:21:06.856Z,40.60
2022-07-27T06:23:34.880Z,40.85
2022-07-27T06:26:02.873Z,40.59
2022-07-27T06:28:30.864Z,40.69
2022-07-27T06:31:01.271Z,40.86
2022-07-27T06:33:30.856Z,40.63
2022-07-27T06:35:59.743Z,40.90
2022-07-27T06:38:29.614Z,40.68
2022-07-27T06:40:57.647Z,40.76
2022-07-27T06:43:26.519Z,40.93
2022-07-27T06:45:55.266Z,40.92
2022-07-27T06:48:24.620Z,41.03
2022-07-27T06:50:52.994Z,40.85
2022-07-27T06:53:21.769Z,40.93
2022-07-27T06:55:49.935Z,41.06
2022-07-27T06:58:17.982Z,40.88
2022-07-27T07:00:46.099Z,40.90
2022-07-27T07:03:14.097Z,41.17
2022-07-27T07:05:44.473Z,40.68
2022-07-27T07:08:13.290Z,40.78
2022-07-27T07:10:41.553Z,40.66
2022-07-27T07:13:09.717Z,40.54
2022-07-27T07:15:38.436Z,40.96
2022-07-27T07:18:06.897Z,40.72
2022-07-27T07:20:34.967Z,40.88
2022-07-27T07:23:04.595Z,40.90
2022-07-27T07:25:32.609Z,40.68
2022-07-27T07:28:01.002Z,40.83
2022-07-27T07:30:29.213Z,40.66
2022-07-27T07:32:57.209Z,40.56
2022-07-27T07:35:25.232Z,40.56
2022-07-27T07:37:53.237Z,40.83
2022-07-27T07:43:11.289Z,40.69
2022-07-27T07:45:51.510Z,40.52
2022-07-27T07:48:21.153Z,40.46
2022-07-27T07:50:51.352Z,40.81
2022-07-27T07:53:20.604Z,40.69
2022-07-27T07:55:49.961Z,40.99
2022-07-27T07:58:18.130Z,41.04
2022-07-27T08:00:46.104Z,41.03
2022-07-27T08:03:14.259Z,41.01
2022-07-27T08:05:42.422Z,40.85
2022-07-27T08:08:10.381Z,40.67
2022-07-27T08:10:38.345Z,40.85
2022-07-27T08:13:08.713Z,40.85
2022-07-27T08:15:36.800Z,40.57
2022-07-27T08:18:04.992Z,40.67
2022-07-27T08:20:33.030Z,40.63
2022-07-27T08:23:00.997Z,40.67
2022-07-27T08:25:28.941Z,40.98
2022-07-27T08:27:56.891Z,40.69
2022-07-27T08:30:26.413Z,40.67
2022-07-27T08:32:55.404Z,40.70
2022-07-27T08:35:23.473Z,40.63
2022-07-27T08:37:51.573Z,40.71
2022-07-27T08:43:07.735Z,40.74
2022-07-27T08:45:38.236Z,40.79
2022-07-27T08:48:07.021Z,41.02
2022-07-27T08:50:35.465Z,40.64
2022-07-27T08:53:04.391Z,40.88
2022-07-27T08:55:32.823Z,40.73
2022-07-27T08:58:03.381Z,40.78
2022-07-27T09:00:31.776Z,40.80
2022-07-27T09:03:01.189Z,40.79
2022-07-27T09:05:37.107Z,40.80
2022-07-27T09:08:12.726Z,40.64
2022-07-27T09:10:40.985Z,40.86
2022-07-27T09:13:22.124Z,40.90
2022-07-27T09:18:41.281Z,40.86
2022-07-27T09:21:10.622Z,40.93
2022-07-27T09:23:38.645Z,40.88
2022-07-27T09:26:29.826Z,40.82
2022-07-27T09:28:59.642Z,40.99
2022-07-27T09:31:27.723Z,40.95
2022-07-27T09:33:59.582Z,41.02
2022-07-27T09:36:28.167Z,40.71
2022-07-27T09:39:01.885Z,40.90
2022-07-27T09:41:40.532Z,40.95
2022-07-27T09:46:56.586Z,40.84
2022-07-27T09:49:29.917Z,40.83
2022-07-27T09:52:01.134Z,40.90
2022-07-27T09:54:29.954Z,40.55
2022-07-27T09:57:04.349Z,40.75
2022-07-27T09:59:32.039Z,40.77
2022-07-27T10:02:00.634Z,40.87
2022-07-27T10:04:30.048Z,40.80
2022-07-27T10:07:03.345Z,40.60
2022-07-27T10:09:33.874Z,40.60
2022-07-27T10:12:04.578Z,40.60
2022-07-27T10:14:33.485Z,40.54
2022-07-27T10:17:01.519Z,40.50
2022-07-27T10:19:33.397Z,40.58
2022-07-27T10:22:01.962Z,40.40
2022-07-27T10:24:32.257Z,40.52
2022-07-27T10:27:00.352Z,40.43
2022-07-27T10:29:28.305Z,40.71
2022-07-27T10:32:00.947Z,40.61
2022-07-27T10:34:37.827Z,40.52
2022-07-27T10:37:12.652Z,40.39
2022-07-27T10:39:43.109Z,40.54
2022-07-27T10:42:35.286Z,40.34
2022-07-27T10:45:06.154Z,40.34
2022-07-27T10:47:42.518Z,40.50
2022-07-27T10:50:31.991Z,40.40
2022-07-27T10:53:04.902Z,40.31
2022-07-27T10:55:46.186Z,40.57
2022-07-27T10:58:48.781Z,40.58
2022-07-27T11:01:17.767Z,40.35
2022-07-27T11:03:52.742Z,40.45
2022-07-27T11:06:37.589Z,40.25
2022-07-27T11:09:59.989Z,40.36
2022-07-27T11:12:00.806Z,40.31
2022-07-27T11:14:31.842Z,40.26
2022-07-27T11:17:24.249Z,40.27
2022-07-27T11:19:53.254Z,40.11
2022-07-27T11:22:50.150Z,40.00
2022-07-27T11:25:19.932Z,40.01
2022-07-27T11:27:49.052Z,39.88
2022-07-27T11:30:24.140Z,40.09
2022-07-27T11:32:52.092Z,39.90
2022-07-27T11:35:20.529Z,39.93
2022-07-27T11:38:01.204Z,39.82
2022-07-27T11:43:33.534Z,39.75
2022-07-27T11:46:11.925Z,39.55
2022-07-27T11:49:05.035Z,39.69
2022-07-27T11:51:28.504Z,39.82
2022-07-27T11:54:02.031Z,39.54
2022-07-27T11:56:32.165Z,39.67
2022-07-27T11:59:08.080Z,39.56
2022-07-27T12:01:37.273Z,39.48
2022-07-27T12:04:13.053Z,39.59
2022-07-27T12:06:41.760Z,39.60
2022-07-27T12:09:13.558Z,39.47
2022-07-27T12:11:50.374Z,39.51
2022-07-27T12:14:18.633Z,39.37
2022-07-27T12:16:47.223Z,39.40
2022-07-27T12:19:23.427Z,39.38
2022-07-27T12:21:54.485Z,39.40
2022-07-27T12:24:34.820Z,39.18
2022-07-27T12:27:06.546Z,39.20
2022-07-27T12:29:35.053Z,39.08
2022-07-27T12:32:04.380Z,39.21
2022-07-27T12:34:36.436Z,39.01
2022-07-27T12:37:12.418Z,39.15
2022-07-27T12:39:42.938Z,39.15
2022-07-27T12:42:11.094Z,39.16
2022-07-27T12:44:40.673Z,39.06
2022-07-27T12:47:28.024Z,38.94
2022-07-27T12:50:06.314Z,39.00
2022-07-27T12:52:34.313Z,39.12
2022-07-27T12:55:03.826Z,38.96
2022-07-27T12:57:53.963Z,38.96
2022-07-27T13:00:20.376Z,38.84
2022-07-27T13:02:48.505Z,38.91
2022-07-27T13:05:16.643Z,38.90
2022-07-27T13:07:46.084Z,38.85
2022-07-27T13:10:18.316Z,38.90
2022-07-27T13:12:46.388Z,38.74
2022-07-27T13:15:14.477Z,38.73
2022-07-27T13:17:42.502Z,38.69
2022-07-27T13:20:12.578Z,38.74
2022-07-27T13:22:40.806Z,38.66
2022-07-27T13:25:15.923Z,38.75
2022-07-27T13:27:46.135Z,38.53
2022-07-27T13:30:14.992Z,38.55
2022-07-27T13:32:43.059Z,38.61
2022-07-27T13:35:12.477Z,38.54
2022-07-27T13:37:40.471Z,38.58
2022-07-27T13:40:09.972Z,38.75
2022-07-27T13:42:38.103Z,38.54
2022-07-27T13:45:10.979Z,38.42
2022-07-27T13:47:39.969Z,38.39
2022-07-27T13:50:16.742Z,38.57
2022-07-27T13:52:46.419Z,38.39
2022-07-27T13:55:14.964Z,38.17
2022-07-27T13:57:42.992Z,38.18
2022-07-27T14:00:13.633Z,38.18
2022-07-27T14:02:45.346Z,37.83
2022-07-27T14:05:14.397Z,38.07
2022-07-27T14:07:43.563Z,37.88
2022-07-27T14:10:30.373Z,37.79
2022-07-27T14:13:08.337Z,37.90
2022-07-27T14:15:50.568Z,37.92
2022-07-27T14:18:21.929Z,37.79
2022-07-27T14:20:49.963Z,37.69
2022-07-27T14:23:19.713Z,37.69
2022-07-27T14:25:47.737Z,37.33
2022-07-27T14:28:16.242Z,37.54
2022-07-27T14:30:45.624Z,37.09
2022-07-27T14:33:13.544Z,37.21
2022-07-27T14:35:41.614Z,36.92
2022-07-27T14:38:09.833Z,36.92
2022-07-27T14:40:37.943Z,36.75
2022-07-27T14:43:06.354Z,36.89
2022-07-27T14:45:44.951Z,36.86
2022-07-27T14:48:21.539Z,36.82
2022-07-27T14:50:53.227Z,36.76
2022-07-27T14:53:21.287Z,36.52
2022-07-27T14:55:49.350Z,36.60
2022-07-27T14:58:17.434Z,36.44
2022-07-27T15:00:45.842Z,36.50
2022-07-27T15:03:15.589Z,36.57
2022-07-27T15:05:50.557Z,36.72
2022-07-27T15:08:20.094Z,36.61
2022-07-27T15:10:48.573Z,36.68
2022-07-27T15:13:16.787Z,36.43
2022-07-27T15:15:44.824Z,36.61
2022-07-27T15:18:12.857Z,36.37
2022-07-27T15:20:42.218Z,36.41
2022-07-27T15:23:10.277Z,36.10
2022-07-27T15:25:38.275Z,36.22
2022-07-27T15:28:06.441Z,36.37
2022-07-27T15:30:38.685Z,36.11
2022-07-27T15:33:07.144Z,36.28
2022-07-27T15:35:35.230Z,35.99
2022-07-27T15:38:04.730Z,35.89
2022-07-27T15:40:38.908Z,36.18
2022-07-27T15:43:06.987Z,35.71
2022-07-27T15:45:38.587Z,36.00
2022-07-27T15:48:08.375Z,35.72
2022-07-27T15:50:39.234Z,35.50
2022-07-27T15:53:08.627Z,35.60
2022-07-27T15:55:37.597Z,35.39
2022-07-27T15:58:05.732Z,35.20
2022-07-27T16:00:39.137Z,35.35
2022-07-27T16:03:07.756Z,35.07
2022-07-27T16:05:38.499Z,35.04
2022-07-27T16:08:09.695Z,34.88
2022-07-27T16:10:37.951Z,34.85
2022-07-27T16:13:06.150Z,34.89
2022-07-27T16:15:51.797Z,34.79
2022-07-27T16:18:19.986Z,34.78
2022-07-27T16:20:48.020Z,35.12
2022-07-27T16:23:19.071Z,35.43
2022-07-27T16:26:07.507Z,35.40
2022-07-27T16:28:36.840Z,35.43
2022-07-27T16:31:05.252Z,35.44
2022-07-27T16:33:33.395Z,35.45
2022-07-27T16:36:01.524Z,35.26
2022-07-27T16:38:31.261Z,35.42
2022-07-27T16:40:59.297Z,35.35
2022-07-27T16:43:38.652Z,35.32
2022-07-27T16:46:08.098Z,35.13
2022-07-27T16:48:42.525Z,35.25
2022-07-27T16:51:12.220Z,35.22
2022-07-27T16:53:43.006Z,35.26
2022-07-27T16:56:11.083Z,35.04
2022-07-27T16:58:39.399Z,35.13
2022-07-27T17:01:07.537Z,35.31
2022-07-27T17:03:35.421Z,35.09
2022-07-27T17:06:06.345Z,35.00
2022-07-27T17:08:35.037Z,34.96
2022-07-27T17:11:05.421Z,34.74
2022-07-27T17:13:35.097Z,34.41
2022-07-27T17:16:03.572Z,33.97
2022-07-27T17:18:37.143Z,34.12
2022-07-27T17:21:09.524Z,33.84
2022-07-27T17:23:39.769Z,33.84
2022-07-27T17:26:09.469Z,33.72
2022-07-27T17:28:39.540Z,33.75
2022-07-27T17:31:08.694Z,33.93
2022-07-27T17:33:36.820Z,33.72
2022-07-27T17:36:09.710Z,33.63
2022-07-27T17:38:42.497Z,34.24
2022-07-27T17:41:12.366Z,34.13
2022-07-27T17:43:40.344Z,34.41
2022-07-27T17:46:08.897Z,34.34
2022-07-27T17:48:37.068Z,34.37
2022-07-27T17:51:05.158Z,34.33
2022-07-27T17:53:33.563Z,34.50
2022-07-27T17:56:02.847Z,34.32
2022-07-27T17:58:32.284Z,34.34
2022-07-27T18:01:00.311Z,34.09
2022-07-27T18:03:28.486Z,34.00
2022-07-27T18:05:56.686Z,34.13
2022-07-27T18:08:24.811Z,34.31
2022-07-27T18:10:52.822Z,34.10
2022-07-27T18:13:20.779Z,33.99
2022-07-27T18:15:50.648Z,34.04
2022-07-27T18:18:19.666Z,34.03
2022-07-27T18:20:50.203Z,34.04
2022-07-27T18:23:18.142Z,34.18
2022-07-27T18:25:46.475Z,34.03
2022-07-27T18:28:16.310Z,34.03
2022-07-27T18:30:44.389Z,33.79
2022-07-27T18:33:14.550Z,33.92
2022-07-27T18:35:43.107Z,33.72
2022-07-27T18:38:11.141Z,33.77
2022-07-27T18:40:39.454Z,33.68
2022-07-27T18:43:07.880Z,33.60
2022-07-27T18:45:35.821Z,33.58
2022-07-27T18:48:03.931Z,33.66
2022-07-27T18:50:38.655Z,33.40
2022-07-27T18:53:07.287Z,33.48
2022-07-27T18:55:35.288Z,33.44
2022-07-27T18:58:03.487Z,33.26
2022-07-27T19:00:31.518Z,33.24
2022-07-27T19:02:59.598Z,33.44
2022-07-27T19:05:40.896Z,33.76
2022-07-27T19:08:12.937Z,33.64
2022-07-27T19:10:41.544Z,33.85
2022-07-27T19:13:10.457Z,34.01
2022-07-27T19:15:38.610Z,34.02
2022-07-27T19:18:06.900Z,33.93
2022-07-27T19:20:36.248Z,33.65
2022-07-27T19:23:04.382Z,33.66
2022-07-27T19:25:34.229Z,33.71
2022-07-27T19:28:02.324Z,33.49
2022-07-27T19:30:30.359Z,33.83
2022-07-27T19:32:58.516Z,33.72
2022-07-27T19:35:26.485Z,33.99
2022-07-27T19:37:54.482Z,33.69
2022-07-27T19:43:12.027Z,33.65
2022-07-27T19:45:40.574Z,33.67
2022-07-27T19:48:08.687Z,33.59
2022-07-27T19:50:36.746Z,33.68
2022-07-27T19:53:04.926Z,33.70
2022-07-27T19:55:33.078Z,33.61
2022-07-27T19:58:01.132Z,33.53
2022-07-27T20:00:34.203Z,33.37
2022-07-27T20:03:02.583Z,33.33
2022-07-27T20:05:30.744Z,33.39
2022-07-27T20:07:58.742Z,32.73
2022-07-27T20:10:26.742Z,33.00
2022-07-27T20:12:54.679Z,32.88
2022-07-27T20:15:22.826Z,32.94
2022-07-27T20:17:52.385Z,32.73
2022-07-27T20:20:20.373Z,32.81
2022-07-27T20:22:48.480Z,32.57
2022-07-27T20:25:16.473Z,32.63
2022-07-27T20:27:44.481Z,32.62
2022-07-27T20:30:14.561Z,33.24
2022-07-27T20:32:42.490Z,33.07
2022-07-27T20:35:11.952Z,33.22
2022-07-27T20:37:48.848Z,33.30
2022-07-27T20:40:16.820Z,33.44
2022-07-27T20:42:44.765Z,33.42
2022-07-27T20:45:14.692Z,33.45
2022-07-27T20:47:43.146Z,33.43
2022-07-27T20:50:13.429Z,33.23
2022-07-27T20:52:41.586Z,33.43
2022-07-27T20:55:10.165Z,33.10
2022-07-27T20:57:38.289Z,33.26
2022-07-27T21:00:07.646Z,33.05
2022-07-27T21:02:35.754Z,33.25
2022-07-27T21:05:03.800Z,33.38
2022-07-27T21:07:33.117Z,33.11
2022-07-27T21:10:01.147Z,33.15
2022-07-27T21:12:29.141Z,33.05
2022-07-27T21:14:57.066Z,32.99
2022-07-27T21:17:25.078Z,33.28
2022-07-27T21:19:53.421Z,32.94
2022-07-27T21:22:21.568Z,33.30
2022-07-27T21:24:51.437Z,33.12
2022-07-27T21:27:21.211Z,32.92
2022-07-27T21:29:49.733Z,32.93
2022-07-27T21:32:17.735Z,33.02
2022-07-27T21:34:45.774Z,32.57
2022-07-27T21:37:13.831Z,32.78
2022-07-27T21:39:41.774Z,32.64
2022-07-27T21:42:11.272Z,32.49
2022-07-27T21:44:39.429Z,32.44
2022-07-27T21:47:13.046Z,32.56
2022-07-27T21:49:42.022Z,32.53
2022-07-27T21:52:11.271Z,32.36
2022-07-27T21:54:39.531Z,32.31
2022-07-27T21:57:07.504Z,32.48
2022-07-27T21:59:36.833Z,33.03
2022-07-27T22:02:04.869Z,33.12
2022-07-27T22:04:32.967Z,33.03
2022-07-27T22:07:01.029Z,32.97
2022-07-27T22:09:29.074Z,33.15
2022-07-27T22:11:57.102Z,33.13
2022-07-27T22:14:25.141Z,33.00
2022-07-27T22:16:54.621Z,32.93
2022-07-27T22:19:23.516Z,32.89
2022-07-27T22:21:51.498Z,32.95
2022-07-27T22:24:19.560Z,33.02
2022-07-27T22:26:47.761Z,33.12
2022-07-27T22:29:15.767Z,32.87
2022-07-27T22:31:43.766Z,32.85
2022-07-27T22:34:13.446Z,32.73
2022-07-27T22:36:41.574Z,32.71
2022-07-27T22:39:09.516Z,32.87
2022-07-27T22:41:37.503Z,32.69
2022-07-27T22:44:05.743Z,32.69
2022-07-27T22:46:36.645Z,32.63
2022-07-27T22:49:04.740Z,32.67
2022-07-27T22:51:48.640Z,32.67
2022-07-27T22:54:18.787Z,32.60
2022-07-27T22:56:47.125Z,32.58
2022-07-27T22:59:15.099Z,32.52
2022-07-27T23:01:45.967Z,32.35
2022-07-27T23:04:16.561Z,32.33
2022-07-27T23:06:46.475Z,32.20
2022-07-27T23:09:14.525Z,31.99
2022-07-27T23:11:42.540Z,31.83
2022-07-27T23:14:10.687Z,31.92
2022-07-27T23:16:38.934Z,32.23
2022-07-27T23:19:06.845Z,32.13
2022-07-27T23:21:34.982Z,31.89
2022-07-27T23:24:07.528Z,32.22
2022-07-27T23:26:37.998Z,32.44
2022-07-27T23:29:05.954Z,32.56
2022-07-27T23:31:33.990Z,32.58
2022-07-27T23:34:02.034Z,32.64
2022-07-27T23:36:30.033Z,32.43
2022-07-27T23:38:58.027Z,32.26
2022-07-27T23:41:27.598Z,32.62
2022-07-27T23:43:55.542Z,32.38
2022-07-27T23:46:23.653Z,32.31
2022-07-27T23:48:51.714Z,32.19
2022-07-27T23:51:20.078Z,32.20
2022-07-27T23:53:48.430Z,32.30
2022-07-27T23:56:16.723Z,31.95
2022-07-27T23:58:46.073Z,32.24
